sensor_id;sensor_type;location;lat;lon;timestamp;P1;durP1;ratioP1;P2;durP2;ratioP2
52342;SDS011;38277;51.972;4.624;2023-05-07T00:02:49;14.5;;;9.3;;
52342;SDS011;38277;51.972;4.624;2023-05-07T00:07:34;13.6;;;8.6;;
52342;SDS011;38277;51.972;4.624;2023-05-07T00:12:10;14.6;;;9.4;;
52342;SDS011;38277;51.972;4.624;2023-05-07T00:16:28;12.8;;;8.6;;
52342;SDS011;38277;51.972;4.624;2023-05-07T00:20:46;14.5;;;8.9;;
52342;SDS011;38277;51.972;4.624;2023-05-07T00:29:55;13.8;;;9.0;;
52342;SDS011;38277;51.972;4.624;2023-05-07T00:34:38;12.4;;;8.7;;
52342;SDS011;38277;51.972;4.624;2023-05-07T00:38:43;15.8;;;9.7;;
52342;SDS011;38277;51.972;4.624;2023-05-07T00:43:41;14.4;;;9.5;;
52342;SDS011;38277;51.972;4.624;2023-05-07T00:47:58;15.6;;;10.1;;
52342;SDS011;38277;51.972;4.624;2023-05-07T00:52:31;15.4;;;10.3;;
52342;SDS011;38277;51.972;4.624;2023-05-07T00:57:00;15.4;;;9.9;;
52342;SDS011;38277;51.972;4.624;2023-05-07T01:05:48;16.3;;;10.8;;
52342;SDS011;38277;51.972;4.624;2023-05-07T01:10:35;16.0;;;10.7;;
52342;SDS011;38277;51.972;4.624;2023-05-07T01:15:11;15.9;;;11.3;;
52342;SDS011;38277;51.972;4.624;2023-05-07T01:19:19;16.4;;;10.6;;
52342;SDS011;38277;51.972;4.624;2023-05-07T01:23:47;15.1;;;10.7;;
52342;SDS011;38277;51.972;4.624;2023-05-07T01:30:05;16.6;;;10.6;;
52342;SDS011;38277;51.972;4.624;2023-05-07T01:33:01;17.5;;;11.8;;
52342;SDS011;38277;51.972;4.624;2023-05-07T01:37:25;17.2;;;12.2;;
52342;SDS011;38277;51.972;4.624;2023-05-07T01:42:00;17.1;;;11.8;;
52342;SDS011;38277;51.972;4.624;2023-05-07T01:47:56;18.2;;;12.4;;
52342;SDS011;38277;51.972;4.624;2023-05-07T01:51:08;18.1;;;11.8;;
52342;SDS011;38277;51.972;4.624;2023-05-07T01:55:13;17.1;;;11.5;;
52342;SDS011;38277;51.972;4.624;2023-05-07T01:59:56;16.2;;;11.4;;
52342;SDS011;38277;51.972;4.624;2023-05-07T02:05:53;17.6;;;12.0;;
52342;SDS011;38277;51.972;4.624;2023-05-07T02:09:10;16.5;;;12.2;;
52342;SDS011;38277;51.972;4.624;2023-05-07T02:13:26;16.7;;;11.3;;
52342;SDS011;38277;51.972;4.624;2023-05-07T02:18:05;16.3;;;11.1;;
52342;SDS011;38277;51.972;4.624;2023-05-07T02:23:58;16.1;;;10.7;;
52342;SDS011;38277;51.972;4.624;2023-05-07T02:26:48;14.6;;;10.0;;
52342;SDS011;38277;51.972;4.624;2023-05-07T02:31:20;18.0;;;11.7;;
52342;SDS011;38277;51.972;4.624;2023-05-07T02:36:05;16.0;;;10.6;;
52342;SDS011;38277;51.972;4.624;2023-05-07T02:42:03;15.1;;;11.0;;
52342;SDS011;38277;51.972;4.624;2023-05-07T02:45:03;14.1;;;9.9;;
52342;SDS011;38277;51.972;4.624;2023-05-07T02:49:35;14.8;;;9.9;;
52342;SDS011;38277;51.972;4.624;2023-05-07T02:53:52;13.1;;;8.9;;
52342;SDS011;38277;51.972;4.624;2023-05-07T03:00:12;13.5;;;9.1;;
52342;SDS011;38277;51.972;4.624;2023-05-07T03:02:55;14.4;;;10.2;;
52342;SDS011;38277;51.972;4.624;2023-05-07T03:07:34;12.9;;;9.0;;
52342;SDS011;38277;51.972;4.624;2023-05-07T03:12:00;13.2;;;9.3;;
52342;SDS011;38277;51.972;4.624;2023-05-07T03:18:11;13.2;;;8.8;;
52342;SDS011;38277;51.972;4.624;2023-05-07T03:20:56;12.3;;;9.1;;
52342;SDS011;38277;51.972;4.624;2023-05-07T03:26:56;13.0;;;8.6;;
52342;SDS011;38277;51.972;4.624;2023-05-07T03:29:59;12.4;;;8.6;;
52342;SDS011;38277;51.972;4.624;2023-05-07T03:38:58;11.4;;;8.3;;
52342;SDS011;38277;51.972;4.624;2023-05-07T03:43:28;12.6;;;8.0;;
52342;SDS011;38277;51.972;4.624;2023-05-07T03:47:56;12.0;;;8.7;;
52342;SDS011;38277;51.972;4.624;2023-05-07T03:52:29;10.9;;;7.7;;
52342;SDS011;38277;51.972;4.624;2023-05-07T03:57:08;11.2;;;7.6;;
52342;SDS011;38277;51.972;4.624;2023-05-07T04:01:30;11.2;;;7.6;;
52342;SDS011;38277;51.972;4.624;2023-05-07T04:06:04;11.4;;;7.6;;
52342;SDS011;38277;51.972;4.624;2023-05-07T04:15:06;8.6;;;6.5;;
52342;SDS011;38277;51.972;4.624;2023-05-07T04:19:22;9.0;;;6.3;;
52342;SDS011;38277;51.972;4.624;2023-05-07T04:24:08;12.1;;;7.2;;
52342;SDS011;38277;51.972;4.624;2023-05-07T04:28:13;9.4;;;7.1;;
52342;SDS011;38277;51.972;4.624;2023-05-07T04:33:10;9.3;;;6.8;;
52342;SDS011;38277;51.972;4.624;2023-05-07T04:42:02;9.8;;;7.0;;
52342;SDS011;38277;51.972;4.624;2023-05-07T04:51:08;10.4;;;6.5;;
52342;SDS011;38277;51.972;4.624;2023-05-07T04:55:20;9.6;;;6.8;;
52342;SDS011;38277;51.972;4.624;2023-05-07T04:59:59;9.1;;;6.7;;
52342;SDS011;38277;51.972;4.624;2023-05-07T05:04:36;12.2;;;6.2;;
52342;SDS011;38277;51.972;4.624;2023-05-07T05:13:31;11.0;;;7.5;;
52342;SDS011;38277;51.972;4.624;2023-05-07T05:17:51;11.7;;;7.2;;
52342;SDS011;38277;51.972;4.624;2023-05-07T05:26:57;10.9;;;6.8;;
52342;SDS011;38277;51.972;4.624;2023-05-07T05:31:38;9.7;;;6.8;;
52342;SDS011;38277;51.972;4.624;2023-05-07T05:35:59;11.9;;;8.1;;
52342;SDS011;38277;51.972;4.624;2023-05-07T05:49:16;12.8;;;8.9;;
52342;SDS011;38277;51.972;4.624;2023-05-07T05:53:45;13.1;;;8.6;;
52342;SDS011;38277;51.972;4.624;2023-05-07T06:03:06;12.5;;;8.5;;
52342;SDS011;38277;51.972;4.624;2023-05-07T06:07:19;13.2;;;9.1;;
52342;SDS011;38277;51.972;4.624;2023-05-07T06:11:43;13.3;;;9.4;;
52342;SDS011;38277;51.972;4.624;2023-05-07T06:16:14;15.5;;;9.9;;
52342;SDS011;38277;51.972;4.624;2023-05-07T06:20:54;16.3;;;11.3;;
52342;SDS011;38277;51.972;4.624;2023-05-07T06:25:19;16.4;;;11.7;;
52342;SDS011;38277;51.972;4.624;2023-05-07T06:30:06;16.3;;;11.5;;
52342;SDS011;38277;51.972;4.624;2023-05-07T06:38:47;16.2;;;12.1;;
52342;SDS011;38277;51.972;4.624;2023-05-07T06:43:41;18.6;;;12.6;;
52342;SDS011;38277;51.972;4.624;2023-05-07T06:48:00;17.5;;;11.8;;
52342;SDS011;38277;51.972;4.624;2023-05-07T06:52:29;17.9;;;12.5;;
52342;SDS011;38277;51.972;4.624;2023-05-07T06:56:55;21.2;;;12.9;;
52342;SDS011;38277;51.972;4.624;2023-05-07T07:01:33;19.2;;;13.4;;
52342;SDS011;38277;51.972;4.624;2023-05-07T07:06:04;16.3;;;10.7;;
52342;SDS011;38277;51.972;4.624;2023-05-07T07:15:00;16.0;;;11.8;;
52342;SDS011;38277;51.972;4.624;2023-05-07T07:19:28;17.3;;;12.0;;
52342;SDS011;38277;51.972;4.624;2023-05-07T07:24:01;17.4;;;12.0;;
52342;SDS011;38277;51.972;4.624;2023-05-07T07:28:34;16.1;;;11.5;;
52342;SDS011;38277;51.972;4.624;2023-05-07T07:33:11;17.6;;;12.1;;
52342;SDS011;38277;51.972;4.624;2023-05-07T07:37:15;15.1;;;10.3;;
52342;SDS011;38277;51.972;4.624;2023-05-07T07:41:54;16.5;;;11.0;;
52342;SDS011;38277;51.972;4.624;2023-05-07T07:47:52;13.6;;;10.0;;
52342;SDS011;38277;51.972;4.624;2023-05-07T07:51:10;14.7;;;9.9;;
52342;SDS011;38277;51.972;4.624;2023-05-07T07:55:20;13.2;;;8.9;;
52342;SDS011;38277;51.972;4.624;2023-05-07T07:59:52;12.9;;;9.2;;
52342;SDS011;38277;51.972;4.624;2023-05-07T08:04:12;15.5;;;9.9;;
52342;SDS011;38277;51.972;4.624;2023-05-07T08:08:53;14.4;;;10.9;;
52342;SDS011;38277;51.972;4.624;2023-05-07T08:13:26;16.7;;;10.7;;
52342;SDS011;38277;51.972;4.624;2023-05-07T08:17:47;14.3;;;10.0;;
52342;SDS011;38277;51.972;4.624;2023-05-07T08:22:12;17.9;;;11.4;;
52342;SDS011;38277;51.972;4.624;2023-05-07T08:26:55;13.8;;;9.9;;
52342;SDS011;38277;51.972;4.624;2023-05-07T08:31:18;17.6;;;10.8;;
52342;SDS011;38277;51.972;4.624;2023-05-07T08:36:06;16.9;;;9.9;;
52342;SDS011;38277;51.972;4.624;2023-05-07T08:40:17;16.4;;;10.3;;
52342;SDS011;38277;51.972;4.624;2023-05-07T08:44:56;14.9;;;9.7;;
52342;SDS011;38277;51.972;4.624;2023-05-07T08:49:20;14.9;;;10.2;;
52342;SDS011;38277;51.972;4.624;2023-05-07T08:53:53;14.3;;;9.8;;
52342;SDS011;38277;51.972;4.624;2023-05-07T08:58:39;16.9;;;10.4;;
52342;SDS011;38277;51.972;4.624;2023-05-07T09:03:06;14.5;;;9.4;;
52342;SDS011;38277;51.972;4.624;2023-05-07T09:07:30;14.9;;;8.0;;
52342;SDS011;38277;51.972;4.624;2023-05-07T09:12:04;12.1;;;8.8;;
52342;SDS011;38277;51.972;4.624;2023-05-07T09:16:29;12.1;;;7.7;;
52342;SDS011;38277;51.972;4.624;2023-05-07T09:20:57;13.3;;;8.6;;
52342;SDS011;38277;51.972;4.624;2023-05-07T09:25:30;14.8;;;8.9;;
52342;SDS011;38277;51.972;4.624;2023-05-07T09:30:04;11.2;;;7.9;;
52342;SDS011;38277;51.972;4.624;2023-05-07T09:34:38;11.4;;;6.9;;
52342;SDS011;38277;51.972;4.624;2023-05-07T09:38:53;12.0;;;7.8;;
52342;SDS011;38277;51.972;4.624;2023-05-07T09:43:21;11.4;;;8.2;;
52342;SDS011;38277;51.972;4.624;2023-05-07T09:48:06;11.1;;;7.0;;
52342;SDS011;38277;51.972;4.624;2023-05-07T09:52:31;12.1;;;8.0;;
52342;SDS011;38277;51.972;4.624;2023-05-07T09:56:46;11.6;;;7.0;;
52342;SDS011;38277;51.972;4.624;2023-05-07T10:01:22;13.7;;;9.0;;
52342;SDS011;38277;51.972;4.624;2023-05-07T10:05:46;9.7;;;6.7;;
52342;SDS011;38277;51.972;4.624;2023-05-07T10:10:35;11.3;;;6.8;;
52342;SDS011;38277;51.972;4.624;2023-05-07T10:14:52;10.1;;;6.4;;
52342;SDS011;38277;51.972;4.624;2023-05-07T10:19:18;10.7;;;6.2;;
52342;SDS011;38277;51.972;4.624;2023-05-07T10:23:43;10.1;;;6.5;;
52342;SDS011;38277;51.972;4.624;2023-05-07T10:32:56;8.2;;;5.3;;
52342;SDS011;38277;51.972;4.624;2023-05-07T10:37:33;10.0;;;4.8;;
52342;SDS011;38277;51.972;4.624;2023-05-07T10:41:49;7.6;;;3.7;;
52342;SDS011;38277;51.972;4.624;2023-05-07T10:46:19;6.6;;;3.8;;
52342;SDS011;38277;51.972;4.624;2023-05-07T10:51:19;7.9;;;4.0;;
52342;SDS011;38277;51.972;4.624;2023-05-07T10:55:34;8.9;;;3.6;;
52342;SDS011;38277;51.972;4.624;2023-05-07T10:59:41;7.1;;;3.6;;
52342;SDS011;38277;51.972;4.624;2023-05-07T11:09:00;9.4;;;4.3;;
52342;SDS011;38277;51.972;4.624;2023-05-07T11:13:17;8.8;;;3.8;;
52342;SDS011;38277;51.972;4.624;2023-05-07T11:18:03;7.6;;;3.7;;
52342;SDS011;38277;51.972;4.624;2023-05-07T11:22:35;8.1;;;3.9;;
52342;SDS011;38277;51.972;4.624;2023-05-07T11:26:52;7.5;;;3.9;;
52342;SDS011;38277;51.972;4.624;2023-05-07T11:31:31;7.2;;;3.8;;
52342;SDS011;38277;51.972;4.624;2023-05-07T11:36:04;8.0;;;3.9;;
52342;SDS011;38277;51.972;4.624;2023-05-07T11:45:09;7.5;;;3.7;;
52342;SDS011;38277;51.972;4.624;2023-05-07T11:49:26;6.7;;;4.0;;
52342;SDS011;38277;51.972;4.624;2023-05-07T11:53:45;9.1;;;4.7;;
52342;SDS011;38277;51.972;4.624;2023-05-07T11:58:24;10.5;;;5.1;;
52342;SDS011;38277;51.972;4.624;2023-05-07T12:03:10;8.3;;;4.5;;
52342;SDS011;38277;51.972;4.624;2023-05-07T12:07:39;7.0;;;3.9;;
52342;SDS011;38277;51.972;4.624;2023-05-07T12:11:52;8.4;;;4.1;;
52342;SDS011;38277;51.972;4.624;2023-05-07T12:16:29;5.9;;;3.8;;
52342;SDS011;38277;51.972;4.624;2023-05-07T12:20:58;7.9;;;4.2;;
52342;SDS011;38277;51.972;4.624;2023-05-07T12:25:28;8.4;;;4.5;;
52342;SDS011;38277;51.972;4.624;2023-05-07T12:29:43;9.0;;;5.8;;
52342;SDS011;38277;51.972;4.624;2023-05-07T12:34:27;9.0;;;3.9;;
52342;SDS011;38277;51.972;4.624;2023-05-07T12:38:58;6.4;;;3.6;;
52342;SDS011;38277;51.972;4.624;2023-05-07T12:43:15;8.1;;;3.9;;
52342;SDS011;38277;51.972;4.624;2023-05-07T12:48:08;7.5;;;3.9;;
52342;SDS011;38277;51.972;4.624;2023-05-07T12:52:12;8.4;;;4.8;;
52342;SDS011;38277;51.972;4.624;2023-05-07T12:56:51;6.6;;;3.7;;
52342;SDS011;38277;51.972;4.624;2023-05-07T13:01:20;7.1;;;3.7;;
52342;SDS011;38277;51.972;4.624;2023-05-07T13:05:44;7.3;;;4.0;;
52342;SDS011;38277;51.972;4.624;2023-05-07T13:14:55;10.0;;;4.5;;
52342;SDS011;38277;51.972;4.624;2023-05-07T13:19:16;11.6;;;5.3;;
52342;SDS011;38277;51.972;4.624;2023-05-07T13:24:07;10.1;;;5.8;;
52342;SDS011;38277;51.972;4.624;2023-05-07T13:28:36;14.1;;;7.8;;
52342;SDS011;38277;51.972;4.624;2023-05-07T13:33:01;17.5;;;9.3;;
52342;SDS011;38277;51.972;4.624;2023-05-07T13:37:14;14.2;;;7.6;;
52342;SDS011;38277;51.972;4.624;2023-05-07T13:50:47;15.0;;;7.6;;
52342;SDS011;38277;51.972;4.624;2023-05-07T13:55:29;11.9;;;6.0;;
52342;SDS011;38277;51.972;4.624;2023-05-07T14:00:02;19.5;;;7.4;;
52342;SDS011;38277;51.972;4.624;2023-05-07T14:04:41;14.6;;;6.6;;
52342;SDS011;38277;51.972;4.624;2023-05-07T14:09:05;13.6;;;7.4;;
52342;SDS011;38277;51.972;4.624;2023-05-07T14:15:16;12.9;;;6.4;;
52342;SDS011;38277;51.972;4.624;2023-05-07T14:17:58;11.2;;;6.1;;
52342;SDS011;38277;51.972;4.624;2023-05-07T14:22:23;13.1;;;6.7;;
52342;SDS011;38277;51.972;4.624;2023-05-07T14:26:48;12.6;;;6.8;;
52342;SDS011;38277;51.972;4.624;2023-05-07T14:33:03;10.8;;;6.6;;
52342;SDS011;38277;51.972;4.624;2023-05-07T14:35:48;15.2;;;8.5;;
52342;SDS011;38277;51.972;4.624;2023-05-07T14:40:37;14.9;;;9.0;;
52342;SDS011;38277;51.972;4.624;2023-05-07T14:44:48;18.4;;;9.7;;
52342;SDS011;38277;51.972;4.624;2023-05-07T14:49:29;14.8;;;8.1;;
52342;SDS011;38277;51.972;4.624;2023-05-07T14:58:18;12.9;;;8.3;;
52342;SDS011;38277;51.972;4.624;2023-05-07T15:02:53;11.9;;;7.0;;
52342;SDS011;38277;51.972;4.624;2023-05-07T15:07:32;14.6;;;7.2;;
52342;SDS011;38277;51.972;4.624;2023-05-07T15:11:57;11.9;;;7.1;;
52342;SDS011;38277;51.972;4.624;2023-05-07T15:16:18;12.0;;;7.1;;
52342;SDS011;38277;51.972;4.624;2023-05-07T15:20:46;13.9;;;7.6;;
52342;SDS011;38277;51.972;4.624;2023-05-07T15:25:22;11.1;;;7.0;;
52342;SDS011;38277;51.972;4.624;2023-05-07T15:34:16;14.6;;;8.6;;
52342;SDS011;38277;51.972;4.624;2023-05-07T15:38:46;12.8;;;7.6;;
52342;SDS011;38277;51.972;4.624;2023-05-07T15:48:03;11.2;;;7.2;;
52342;SDS011;38277;51.972;4.624;2023-05-07T15:52:28;11.7;;;7.3;;
52342;SDS011;38277;51.972;4.624;2023-05-07T15:57:01;12.4;;;7.8;;
52342;SDS011;38277;51.972;4.624;2023-05-07T16:01:21;12.9;;;7.7;;
52342;SDS011;38277;51.972;4.624;2023-05-07T16:10:40;15.2;;;9.4;;
52342;SDS011;38277;51.972;4.624;2023-05-07T16:14:43;13.6;;;8.3;;
52342;SDS011;38277;51.972;4.624;2023-05-07T16:19:22;14.9;;;9.4;;
52342;SDS011;38277;51.972;4.624;2023-05-07T16:23:52;15.1;;;9.2;;
52342;SDS011;38277;51.972;4.624;2023-05-07T16:28:16;17.0;;;10.3;;
52342;SDS011;38277;51.972;4.624;2023-05-07T16:32:48;17.0;;;11.3;;
52342;SDS011;38277;51.972;4.624;2023-05-07T16:37:26;17.4;;;10.3;;
52342;SDS011;38277;51.972;4.624;2023-05-07T16:46:19;15.3;;;9.4;;
52342;SDS011;38277;51.972;4.624;2023-05-07T16:50:54;15.0;;;8.8;;
52342;SDS011;38277;51.972;4.624;2023-05-07T16:55:19;13.9;;;8.9;;
52342;SDS011;38277;51.972;4.624;2023-05-07T17:04:24;15.8;;;10.9;;
52342;SDS011;38277;51.972;4.624;2023-05-07T17:09:02;14.8;;;9.4;;
52342;SDS011;38277;51.972;4.624;2023-05-07T17:13:29;12.8;;;8.5;;
52342;SDS011;38277;51.972;4.624;2023-05-07T17:22:36;14.2;;;8.4;;
52342;SDS011;38277;51.972;4.624;2023-05-07T17:26:58;10.9;;;7.2;;
52342;SDS011;38277;51.972;4.624;2023-05-07T17:31:20;14.7;;;8.7;;
52342;SDS011;38277;51.972;4.624;2023-05-07T17:36:10;12.8;;;8.8;;
52342;SDS011;38277;51.972;4.624;2023-05-07T17:40:31;14.2;;;8.8;;
52342;SDS011;38277;51.972;4.624;2023-05-07T17:44:59;13.5;;;8.8;;
52342;SDS011;38277;51.972;4.624;2023-05-07T17:49:12;11.9;;;7.9;;
52342;SDS011;38277;51.972;4.624;2023-05-07T17:58:23;13.5;;;7.4;;
52342;SDS011;38277;51.972;4.624;2023-05-07T18:02:50;14.9;;;8.1;;
52342;SDS011;38277;51.972;4.624;2023-05-07T18:07:20;12.9;;;8.3;;
52342;SDS011;38277;51.972;4.624;2023-05-07T18:11:55;11.9;;;7.4;;
52342;SDS011;38277;51.972;4.624;2023-05-07T18:16:13;9.8;;;6.8;;
52342;SDS011;38277;51.972;4.624;2023-05-07T18:20:56;14.6;;;7.5;;
52342;SDS011;38277;51.972;4.624;2023-05-07T18:25:20;13.8;;;9.3;;
52342;SDS011;38277;51.972;4.624;2023-05-07T18:34:33;11.1;;;7.4;;
52342;SDS011;38277;51.972;4.624;2023-05-07T18:38:47;13.3;;;8.5;;
52342;SDS011;38277;51.972;4.624;2023-05-07T18:43:39;13.1;;;8.9;;
52342;SDS011;38277;51.972;4.624;2023-05-07T18:48:07;14.7;;;8.4;;
52342;SDS011;38277;51.972;4.624;2023-05-07T18:57:01;14.7;;;9.9;;
52342;SDS011;38277;51.972;4.624;2023-05-07T19:01:29;13.8;;;9.4;;
52342;SDS011;38277;51.972;4.624;2023-05-07T19:10:15;12.6;;;7.6;;
52342;SDS011;38277;51.972;4.624;2023-05-07T19:14:45;12.3;;;7.8;;
52342;SDS011;38277;51.972;4.624;2023-05-07T19:19:31;12.3;;;7.9;;
52342;SDS011;38277;51.972;4.624;2023-05-07T19:23:58;11.4;;;7.8;;
52342;SDS011;38277;51.972;4.624;2023-05-07T19:28:26;11.7;;;7.3;;
52342;SDS011;38277;51.972;4.624;2023-05-07T19:32:53;12.9;;;8.0;;
52342;SDS011;38277;51.972;4.624;2023-05-07T19:37:36;12.6;;;7.0;;
52342;SDS011;38277;51.972;4.624;2023-05-07T19:41:52;11.7;;;7.4;;
52342;SDS011;38277;51.972;4.624;2023-05-07T19:46:28;10.9;;;7.4;;
52342;SDS011;38277;51.972;4.624;2023-05-07T19:50:59;12.6;;;8.5;;
52342;SDS011;38277;51.972;4.624;2023-05-07T19:55:28;16.8;;;9.6;;
52342;SDS011;38277;51.972;4.624;2023-05-07T19:59:42;15.9;;;9.9;;
52342;SDS011;38277;51.972;4.624;2023-05-07T20:04:19;13.9;;;9.7;;
52342;SDS011;38277;51.972;4.624;2023-05-07T20:08:59;16.5;;;9.8;;
52342;SDS011;38277;51.972;4.624;2023-05-07T20:13:16;16.7;;;10.0;;
52342;SDS011;38277;51.972;4.624;2023-05-07T20:17:58;13.3;;;9.1;;
52342;SDS011;38277;51.972;4.624;2023-05-07T20:22:35;16.3;;;10.5;;
52342;SDS011;38277;51.972;4.624;2023-05-07T20:31:19;12.6;;;8.8;;
52342;SDS011;38277;51.972;4.624;2023-05-07T20:35:58;14.9;;;9.7;;
52342;SDS011;38277;51.972;4.624;2023-05-07T20:40:11;13.9;;;9.0;;
52342;SDS011;38277;51.972;4.624;2023-05-07T20:44:51;15.1;;;9.6;;
52342;SDS011;38277;51.972;4.624;2023-05-07T20:49:25;13.4;;;9.1;;
52342;SDS011;38277;51.972;4.624;2023-05-07T20:54:03;17.1;;;10.6;;
52342;SDS011;38277;51.972;4.624;2023-05-07T20:58:31;16.2;;;10.1;;
52342;SDS011;38277;51.972;4.624;2023-05-07T21:07:33;16.7;;;11.1;;
52342;SDS011;38277;51.972;4.624;2023-05-07T21:12:06;15.1;;;10.1;;
52342;SDS011;38277;51.972;4.624;2023-05-07T21:16:18;15.3;;;10.9;;
52342;SDS011;38277;51.972;4.624;2023-05-07T21:20:52;15.8;;;10.5;;
52342;SDS011;38277;51.972;4.624;2023-05-07T21:25:27;13.7;;;9.6;;
52342;SDS011;38277;51.972;4.624;2023-05-07T21:34:26;15.0;;;10.9;;
52342;SDS011;38277;51.972;4.624;2023-05-07T21:43:37;17.7;;;12.9;;
52342;SDS011;38277;51.972;4.624;2023-05-07T21:47:45;20.4;;;15.2;;
52342;SDS011;38277;51.972;4.624;2023-05-07T21:52:23;18.2;;;14.1;;
52342;SDS011;38277;51.972;4.624;2023-05-07T21:57:10;18.9;;;13.4;;
52342;SDS011;38277;51.972;4.624;2023-05-07T22:01:27;23.0;;;17.6;;
52342;SDS011;38277;51.972;4.624;2023-05-07T22:06:05;21.4;;;15.5;;
52342;SDS011;38277;51.972;4.624;2023-05-07T22:10:13;20.4;;;14.7;;
52342;SDS011;38277;51.972;4.624;2023-05-07T22:19:26;20.4;;;15.7;;
52342;SDS011;38277;51.972;4.624;2023-05-07T22:24:09;21.5;;;16.5;;
52342;SDS011;38277;51.972;4.624;2023-05-07T22:28:12;20.4;;;15.7;;
52342;SDS011;38277;51.972;4.624;2023-05-07T22:33:10;20.7;;;15.7;;
52342;SDS011;38277;51.972;4.624;2023-05-07T22:37:40;21.4;;;16.6;;
52342;SDS011;38277;51.972;4.624;2023-05-07T22:42:08;23.5;;;17.9;;
52342;SDS011;38277;51.972;4.624;2023-05-07T22:46:11;22.5;;;16.9;;
52342;SDS011;38277;51.972;4.624;2023-05-07T22:55:30;22.8;;;18.1;;
52342;SDS011;38277;51.972;4.624;2023-05-07T22:59:53;23.5;;;18.7;;
52342;SDS011;38277;51.972;4.624;2023-05-07T23:04:22;23.4;;;17.6;;
52342;SDS011;38277;51.972;4.624;2023-05-07T23:08:42;20.6;;;14.9;;
52342;SDS011;38277;51.972;4.624;2023-05-07T23:13:16;20.8;;;16.5;;
52342;SDS011;38277;51.972;4.624;2023-05-07T23:17:44;20.9;;;14.8;;
52342;SDS011;38277;51.972;4.624;2023-05-07T23:26:53;24.1;;;18.4;;
52342;SDS011;38277;51.972;4.624;2023-05-07T23:31:33;23.0;;;18.7;;
52342;SDS011;38277;51.972;4.624;2023-05-07T23:35:49;26.0;;;20.6;;
52342;SDS011;38277;51.972;4.624;2023-05-07T23:44:58;28.0;;;21.4;;
52342;SDS011;38277;51.972;4.624;2023-05-07T23:49:15;29.5;;;23.1;;
52342;SDS011;38277;51.972;4.624;2023-05-07T23:54:01;29.7;;;24.0;;
52342;SDS011;38277;51.972;4.624;2023-05-07T23:58:16;33.2;;;25.5;;
